Terminal Aerodrome Forecast
Issued by NWS Sioux Falls, SD

Home | Current Version | Previous Version | Text Only | Print | Product List | Glossary On
Versions: 1 2 3 4 5 6 7 8 9 10 11 12 13
000
FTUS43 KFSD 041735
TAFFSD
TAF
KFSD 041735Z 0418/0518 16012KT P6SM SCT070 BKN120
      TEMPO 0418/0419 -TSRA SCT070 OVC100CB
     FM042000 18012G18KT P6SM SCT110 SCT250
     FM050300 15011KT P6SM FEW090
     FM051500 18012KT P6SM BKN150=

USA.gov is the U.S. government's official web portal to all federal, state and local government web resources and services.